sensor_id;sensor_type;location;lat;lon;timestamp;P1;durP1;ratioP1;P2;durP2;ratioP2
50012;SDS011;35901;48.694;9.476;2023-04-03T00:00:44;4.00;;;3.70;;
50012;SDS011;35901;48.694;9.476;2023-04-03T00:03:09;5.47;;;4.50;;
50012;SDS011;35901;48.694;9.476;2023-04-03T00:05:36;5.20;;;3.50;;
50012;SDS011;35901;48.694;9.476;2023-04-03T00:08:02;4.00;;;3.70;;
50012;SDS011;35901;48.694;9.476;2023-04-03T00:10:33;4.50;;;4.10;;
50012;SDS011;35901;48.694;9.476;2023-04-03T00:12:59;4.97;;;4.00;;
50012;SDS011;35901;48.694;9.476;2023-04-03T00:15:29;5.00;;;3.93;;
50012;SDS011;35901;48.694;9.476;2023-04-03T00:17:55;4.33;;;3.90;;
50012;SDS011;35901;48.694;9.476;2023-04-03T00:20:22;4.57;;;4.17;;
50012;SDS011;35901;48.694;9.476;2023-04-03T00:32:13;4.40;;;4.00;;
50012;SDS011;35901;48.694;9.476;2023-04-03T00:34:39;4.90;;;3.90;;
50012;SDS011;35901;48.694;9.476;2023-04-03T00:37:04;4.33;;;3.90;;
50012;SDS011;35901;48.694;9.476;2023-04-03T00:39:31;4.80;;;4.30;;
50012;SDS011;35901;48.694;9.476;2023-04-03T00:41:59;4.77;;;3.77;;
50012;SDS011;35901;48.694;9.476;2023-04-03T00:47:00;5.90;;;3.97;;
50012;SDS011;35901;48.694;9.476;2023-04-03T00:49:28;4.23;;;3.83;;
50012;SDS011;35901;48.694;9.476;2023-04-03T00:51:55;4.73;;;3.93;;
50012;SDS011;35901;48.694;9.476;2023-04-03T00:54:22;4.47;;;4.07;;
50012;SDS011;35901;48.694;9.476;2023-04-03T00:56:49;4.87;;;4.20;;
50012;SDS011;35901;48.694;9.476;2023-04-03T00:59:20;4.93;;;4.43;;
50012;SDS011;35901;48.694;9.476;2023-04-03T01:01:54;4.13;;;3.83;;
50012;SDS011;35901;48.694;9.476;2023-04-03T01:04:28;4.97;;;4.27;;
50012;SDS011;35901;48.694;9.476;2023-04-03T01:06:57;4.50;;;4.10;;
50012;SDS011;35901;48.694;9.476;2023-04-03T01:09:27;4.63;;;4.03;;
50012;SDS011;35901;48.694;9.476;2023-04-03T01:11:54;4.23;;;3.83;;
50012;SDS011;35901;48.694;9.476;2023-04-03T01:14:37;5.73;;;3.90;;
50012;SDS011;35901;48.694;9.476;2023-04-03T01:17:03;4.13;;;3.73;;
50012;SDS011;35901;48.694;9.476;2023-04-03T01:19:47;4.77;;;3.70;;
50012;SDS011;35901;48.694;9.476;2023-04-03T01:22:27;4.43;;;4.03;;
50012;SDS011;35901;48.694;9.476;2023-04-03T01:25:00;5.63;;;3.70;;
50012;SDS011;35901;48.694;9.476;2023-04-03T01:27:26;3.93;;;3.63;;
50012;SDS011;35901;48.694;9.476;2023-04-03T01:29:52;4.83;;;4.00;;
50012;SDS011;35901;48.694;9.476;2023-04-03T01:32:19;4.63;;;4.13;;
50012;SDS011;35901;48.694;9.476;2023-04-03T01:34:45;4.10;;;3.80;;
50012;SDS011;35901;48.694;9.476;2023-04-03T01:37:11;4.80;;;4.30;;
50012;SDS011;35901;48.694;9.476;2023-04-03T01:39:36;4.27;;;3.70;;
50012;SDS011;35901;48.694;9.476;2023-04-03T01:42:02;4.37;;;3.97;;
50012;SDS011;35901;48.694;9.476;2023-04-03T01:44:33;3.90;;;3.50;;
50012;SDS011;35901;48.694;9.476;2023-04-03T01:47:05;4.10;;;3.70;;
50012;SDS011;35901;48.694;9.476;2023-04-03T01:49:34;4.03;;;3.50;;
50012;SDS011;35901;48.694;9.476;2023-04-03T01:52:00;4.13;;;3.40;;
50012;SDS011;35901;48.694;9.476;2023-04-03T01:54:26;4.03;;;3.67;;
50012;SDS011;35901;48.694;9.476;2023-04-03T01:56:52;4.10;;;3.80;;
50012;SDS011;35901;48.694;9.476;2023-04-03T01:59:19;4.50;;;4.10;;
50012;SDS011;35901;48.694;9.476;2023-04-03T02:01:45;4.77;;;4.23;;
50012;SDS011;35901;48.694;9.476;2023-04-03T02:04:12;3.90;;;3.50;;
50012;SDS011;35901;48.694;9.476;2023-04-03T02:06:38;4.10;;;3.70;;
50012;SDS011;35901;48.694;9.476;2023-04-03T02:09:05;4.03;;;3.70;;
50012;SDS011;35901;48.694;9.476;2023-04-03T02:11:32;3.70;;;3.40;;
50012;SDS011;35901;48.694;9.476;2023-04-03T02:13:58;4.30;;;3.40;;
50012;SDS011;35901;48.694;9.476;2023-04-03T02:16:25;3.83;;;3.53;;
50012;SDS011;35901;48.694;9.476;2023-04-03T02:18:52;5.20;;;3.67;;
50012;SDS011;35901;48.694;9.476;2023-04-03T02:21:17;3.30;;;3.00;;
50012;SDS011;35901;48.694;9.476;2023-04-03T02:23:43;3.77;;;3.27;;
50012;SDS011;35901;48.694;9.476;2023-04-03T02:26:12;3.90;;;3.50;;
50012;SDS011;35901;48.694;9.476;2023-04-03T02:28:39;3.60;;;3.30;;
50012;SDS011;35901;48.694;9.476;2023-04-03T02:31:06;4.07;;;3.40;;
50012;SDS011;35901;48.694;9.476;2023-04-03T02:33:32;3.47;;;3.17;;
50012;SDS011;35901;48.694;9.476;2023-04-03T02:35:59;3.70;;;3.40;;
50012;SDS011;35901;48.694;9.476;2023-04-03T02:38:25;3.60;;;3.30;;
50012;SDS011;35901;48.694;9.476;2023-04-03T02:40:52;3.53;;;3.17;;
50012;SDS011;35901;48.694;9.476;2023-04-03T02:43:18;3.60;;;3.30;;
50012;SDS011;35901;48.694;9.476;2023-04-03T02:45:43;3.67;;;3.37;;
50012;SDS011;35901;48.694;9.476;2023-04-03T02:48:11;5.10;;;3.57;;
50012;SDS011;35901;48.694;9.476;2023-04-03T02:50:37;3.90;;;3.60;;
50012;SDS011;35901;48.694;9.476;2023-04-03T02:53:02;3.50;;;3.20;;
50012;SDS011;35901;48.694;9.476;2023-04-03T02:55:28;4.57;;;3.43;;
50012;SDS011;35901;48.694;9.476;2023-04-03T02:57:55;3.33;;;3.00;;
50012;SDS011;35901;48.694;9.476;2023-04-03T03:00:21;4.50;;;4.10;;
50012;SDS011;35901;48.694;9.476;2023-04-03T03:02:48;4.00;;;3.53;;
50012;SDS011;35901;48.694;9.476;2023-04-03T03:05:14;3.67;;;3.37;;
50012;SDS011;35901;48.694;9.476;2023-04-03T03:07:40;3.37;;;3.00;;
50012;SDS011;35901;48.694;9.476;2023-04-03T03:10:06;4.17;;;3.07;;
50012;SDS011;35901;48.694;9.476;2023-04-03T03:12:32;3.53;;;3.23;;
50012;SDS011;35901;48.694;9.476;2023-04-03T03:14:57;3.30;;;3.00;;
50012;SDS011;35901;48.694;9.476;2023-04-03T03:17:23;3.23;;;2.90;;
50012;SDS011;35901;48.694;9.476;2023-04-03T03:19:49;4.50;;;4.03;;
50012;SDS011;35901;48.694;9.476;2023-04-03T03:22:16;3.40;;;2.97;;
50012;SDS011;35901;48.694;9.476;2023-04-03T03:24:42;3.07;;;2.87;;
50012;SDS011;35901;48.694;9.476;2023-04-03T03:27:08;3.37;;;3.07;;
50012;SDS011;35901;48.694;9.476;2023-04-03T03:29:33;3.37;;;3.07;;
50012;SDS011;35901;48.694;9.476;2023-04-03T03:31:59;4.63;;;3.60;;
50012;SDS011;35901;48.694;9.476;2023-04-03T03:34:26;3.37;;;3.10;;
50012;SDS011;35901;48.694;9.476;2023-04-03T03:36:51;3.83;;;3.10;;
50012;SDS011;35901;48.694;9.476;2023-04-03T03:39:17;3.97;;;3.10;;
50012;SDS011;35901;48.694;9.476;2023-04-03T03:41:44;4.50;;;2.97;;
50012;SDS011;35901;48.694;9.476;2023-04-03T03:44:10;3.50;;;2.80;;
50012;SDS011;35901;48.694;9.476;2023-04-03T03:46:36;2.93;;;2.73;;
50012;SDS011;35901;48.694;9.476;2023-04-03T03:49:02;3.87;;;2.83;;
50012;SDS011;35901;48.694;9.476;2023-04-03T03:51:28;3.07;;;2.70;;
50012;SDS011;35901;48.694;9.476;2023-04-03T03:53:55;3.17;;;2.70;;
50012;SDS011;35901;48.694;9.476;2023-04-03T03:56:21;3.20;;;2.90;;
50012;SDS011;35901;48.694;9.476;2023-04-03T03:58:47;2.87;;;2.67;;
50012;SDS011;35901;48.694;9.476;2023-04-03T04:01:14;3.43;;;3.10;;
50012;SDS011;35901;48.694;9.476;2023-04-03T04:03:45;2.90;;;2.53;;
50012;SDS011;35901;48.694;9.476;2023-04-03T04:06:14;3.63;;;3.10;;
50012;SDS011;35901;48.694;9.476;2023-04-03T04:08:40;3.13;;;2.83;;
50012;SDS011;35901;48.694;9.476;2023-04-03T04:11:09;2.90;;;2.70;;
50012;SDS011;35901;48.694;9.476;2023-04-03T04:13:35;3.10;;;2.80;;
50012;SDS011;35901;48.694;9.476;2023-04-03T04:16:01;2.90;;;2.63;;
50012;SDS011;35901;48.694;9.476;2023-04-03T04:18:27;3.27;;;2.97;;
50012;SDS011;35901;48.694;9.476;2023-04-03T04:20:53;2.87;;;2.60;;
50012;SDS011;35901;48.694;9.476;2023-04-03T04:23:20;3.33;;;3.00;;
50012;SDS011;35901;48.694;9.476;2023-04-03T04:25:48;3.53;;;2.90;;
50012;SDS011;35901;48.694;9.476;2023-04-03T04:28:14;3.07;;;2.73;;
50012;SDS011;35901;48.694;9.476;2023-04-03T04:30:40;3.57;;;3.27;;
50012;SDS011;35901;48.694;9.476;2023-04-03T04:33:06;2.90;;;2.70;;
50012;SDS011;35901;48.694;9.476;2023-04-03T04:35:33;2.80;;;2.60;;
50012;SDS011;35901;48.694;9.476;2023-04-03T04:38:00;3.67;;;2.80;;
50012;SDS011;35901;48.694;9.476;2023-04-03T04:40:26;3.27;;;2.97;;
50012;SDS011;35901;48.694;9.476;2023-04-03T04:42:52;3.73;;;2.90;;
50012;SDS011;35901;48.694;9.476;2023-04-03T04:45:19;3.00;;;2.80;;
50012;SDS011;35901;48.694;9.476;2023-04-03T04:47:46;4.00;;;2.63;;
50012;SDS011;35901;48.694;9.476;2023-04-03T04:50:12;3.30;;;3.00;;
50012;SDS011;35901;48.694;9.476;2023-04-03T04:52:38;3.10;;;2.80;;
50012;SDS011;35901;48.694;9.476;2023-04-03T04:55:06;2.60;;;2.40;;
50012;SDS011;35901;48.694;9.476;2023-04-03T04:57:32;3.63;;;2.70;;
50012;SDS011;35901;48.694;9.476;2023-04-03T04:59:58;3.00;;;2.70;;
50012;SDS011;35901;48.694;9.476;2023-04-03T05:02:24;2.83;;;2.63;;
50012;SDS011;35901;48.694;9.476;2023-04-03T05:04:50;2.60;;;2.40;;
50012;SDS011;35901;48.694;9.476;2023-04-03T05:07:21;2.80;;;2.60;;
50012;SDS011;35901;48.694;9.476;2023-04-03T05:09:47;3.30;;;3.00;;
50012;SDS011;35901;48.694;9.476;2023-04-03T05:12:15;2.57;;;2.37;;
50012;SDS011;35901;48.694;9.476;2023-04-03T05:14:48;3.00;;;2.70;;
50012;SDS011;35901;48.694;9.476;2023-04-03T05:17:13;2.70;;;2.50;;
50012;SDS011;35901;48.694;9.476;2023-04-03T05:19:43;3.03;;;2.77;;
50012;SDS011;35901;48.694;9.476;2023-04-03T05:22:10;3.80;;;2.63;;
50012;SDS011;35901;48.694;9.476;2023-04-03T05:24:36;3.10;;;2.80;;
50012;SDS011;35901;48.694;9.476;2023-04-03T05:27:03;2.60;;;2.40;;
50012;SDS011;35901;48.694;9.476;2023-04-03T05:29:32;4.33;;;2.90;;
50012;SDS011;35901;48.694;9.476;2023-04-03T05:31:59;3.07;;;2.60;;
50012;SDS011;35901;48.694;9.476;2023-04-03T05:34:25;4.47;;;2.83;;
50012;SDS011;35901;48.694;9.476;2023-04-03T05:36:54;2.80;;;2.60;;
50012;SDS011;35901;48.694;9.476;2023-04-03T05:39:20;3.37;;;2.73;;
50012;SDS011;35901;48.694;9.476;2023-04-03T05:41:47;2.70;;;2.50;;
50012;SDS011;35901;48.694;9.476;2023-04-03T05:44:13;3.03;;;2.63;;
50012;SDS011;35901;48.694;9.476;2023-04-03T05:46:41;2.80;;;2.60;;
50012;SDS011;35901;48.694;9.476;2023-04-03T05:49:08;3.17;;;2.87;;
50012;SDS011;35901;48.694;9.476;2023-04-03T05:51:36;3.03;;;2.63;;
50012;SDS011;35901;48.694;9.476;2023-04-03T05:54:27;2.60;;;2.40;;
50012;SDS011;35901;48.694;9.476;2023-04-03T05:57:17;2.70;;;2.50;;
50012;SDS011;35901;48.694;9.476;2023-04-03T05:59:43;2.80;;;2.60;;
50012;SDS011;35901;48.694;9.476;2023-04-03T06:02:11;3.80;;;2.40;;
50012;SDS011;35901;48.694;9.476;2023-04-03T06:04:38;3.10;;;2.80;;
50012;SDS011;35901;48.694;9.476;2023-04-03T06:07:04;3.00;;;2.80;;
50012;SDS011;35901;48.694;9.476;2023-04-03T06:09:30;3.23;;;2.90;;
50012;SDS011;35901;48.694;9.476;2023-04-03T06:11:55;3.10;;;2.70;;
50012;SDS011;35901;48.694;9.476;2023-04-03T06:14:24;3.10;;;2.47;;
50012;SDS011;35901;48.694;9.476;2023-04-03T06:16:51;4.73;;;2.77;;
50012;SDS011;35901;48.694;9.476;2023-04-03T06:19:18;2.67;;;2.47;;
50012;SDS011;35901;48.694;9.476;2023-04-03T06:21:49;2.70;;;2.50;;
50012;SDS011;35901;48.694;9.476;2023-04-03T06:24:16;2.80;;;2.60;;
50012;SDS011;35901;48.694;9.476;2023-04-03T06:26:42;2.73;;;2.50;;
50012;SDS011;35901;48.694;9.476;2023-04-03T06:29:08;2.40;;;2.30;;
50012;SDS011;35901;48.694;9.476;2023-04-03T06:31:34;2.70;;;2.50;;
50012;SDS011;35901;48.694;9.476;2023-04-03T06:34:01;3.07;;;2.70;;
50012;SDS011;35901;48.694;9.476;2023-04-03T06:36:27;3.63;;;2.43;;
50012;SDS011;35901;48.694;9.476;2023-04-03T06:38:53;3.03;;;2.37;;
50012;SDS011;35901;48.694;9.476;2023-04-03T06:41:19;2.53;;;2.33;;
50012;SDS011;35901;48.694;9.476;2023-04-03T06:43:46;2.60;;;2.40;;
50012;SDS011;35901;48.694;9.476;2023-04-03T06:46:16;3.13;;;2.43;;
50012;SDS011;35901;48.694;9.476;2023-04-03T06:48:43;2.83;;;2.30;;
50012;SDS011;35901;48.694;9.476;2023-04-03T06:51:19;2.30;;;2.10;;
50012;SDS011;35901;48.694;9.476;2023-04-03T06:53:54;1.60;;;1.50;;
50012;SDS011;35901;48.694;9.476;2023-04-03T06:56:21;2.50;;;2.30;;
50012;SDS011;35901;48.694;9.476;2023-04-03T06:58:48;2.67;;;2.40;;
50012;SDS011;35901;48.694;9.476;2023-04-03T07:01:14;2.80;;;2.50;;
50012;SDS011;35901;48.694;9.476;2023-04-03T07:03:41;3.70;;;2.47;;
50012;SDS011;35901;48.694;9.476;2023-04-03T07:06:08;3.27;;;2.20;;
50012;SDS011;35901;48.694;9.476;2023-04-03T07:08:36;2.83;;;2.30;;
50012;SDS011;35901;48.694;9.476;2023-04-03T07:11:02;2.90;;;2.40;;
50012;SDS011;35901;48.694;9.476;2023-04-03T07:13:28;2.53;;;2.30;;
50012;SDS011;35901;48.694;9.476;2023-04-03T07:15:54;2.50;;;2.30;;
50012;SDS011;35901;48.694;9.476;2023-04-03T07:18:20;2.73;;;2.50;;
50012;SDS011;35901;48.694;9.476;2023-04-03T07:20:46;2.97;;;2.60;;
50012;SDS011;35901;48.694;9.476;2023-04-03T07:23:12;2.57;;;2.37;;
50012;SDS011;35901;48.694;9.476;2023-04-03T07:25:48;2.30;;;2.10;;
50012;SDS011;35901;48.694;9.476;2023-04-03T07:28:15;2.47;;;2.27;;
50012;SDS011;35901;48.694;9.476;2023-04-03T07:30:45;3.60;;;2.20;;
50012;SDS011;35901;48.694;9.476;2023-04-03T07:33:13;2.90;;;2.33;;
50012;SDS011;35901;48.694;9.476;2023-04-03T07:35:40;2.43;;;2.03;;
50012;SDS011;35901;48.694;9.476;2023-04-03T07:38:06;2.83;;;2.10;;
50012;SDS011;35901;48.694;9.476;2023-04-03T07:40:32;3.27;;;1.50;;
50012;SDS011;35901;48.694;9.476;2023-04-03T07:42:58;2.67;;;2.30;;
50012;SDS011;35901;48.694;9.476;2023-04-03T07:45:24;1.83;;;1.73;;
50012;SDS011;35901;48.694;9.476;2023-04-03T07:47:50;2.90;;;2.60;;
50012;SDS011;35901;48.694;9.476;2023-04-03T07:50:16;3.00;;;2.50;;
50012;SDS011;35901;48.694;9.476;2023-04-03T07:52:43;2.73;;;2.10;;
50012;SDS011;35901;48.694;9.476;2023-04-03T07:55:08;1.97;;;1.87;;
50012;SDS011;35901;48.694;9.476;2023-04-03T07:57:34;2.20;;;2.00;;
50012;SDS011;35901;48.694;9.476;2023-04-03T08:00:02;2.60;;;2.40;;
50012;SDS011;35901;48.694;9.476;2023-04-03T08:02:37;3.43;;;2.50;;
50012;SDS011;35901;48.694;9.476;2023-04-03T08:05:03;2.30;;;2.10;;
50012;SDS011;35901;48.694;9.476;2023-04-03T08:07:29;3.97;;;2.33;;
50012;SDS011;35901;48.694;9.476;2023-04-03T08:09:54;1.97;;;1.80;;
50012;SDS011;35901;48.694;9.476;2023-04-03T08:12:20;3.17;;;2.40;;
50012;SDS011;35901;48.694;9.476;2023-04-03T08:14:46;3.10;;;2.20;;
50012;SDS011;35901;48.694;9.476;2023-04-03T08:17:11;2.77;;;2.27;;
50012;SDS011;35901;48.694;9.476;2023-04-03T08:19:37;4.40;;;2.67;;
50012;SDS011;35901;48.694;9.476;2023-04-03T08:22:04;2.87;;;2.40;;
50012;SDS011;35901;48.694;9.476;2023-04-03T08:24:34;2.17;;;1.57;;
50012;SDS011;35901;48.694;9.476;2023-04-03T08:27:00;3.57;;;2.60;;
50012;SDS011;35901;48.694;9.476;2023-04-03T08:29:26;2.97;;;2.53;;
50012;SDS011;35901;48.694;9.476;2023-04-03T08:31:52;1.90;;;1.80;;
50012;SDS011;35901;48.694;9.476;2023-04-03T08:34:18;2.87;;;2.30;;
50012;SDS011;35901;48.694;9.476;2023-04-03T08:36:44;3.00;;;2.53;;
50012;SDS011;35901;48.694;9.476;2023-04-03T08:39:11;2.50;;;2.20;;
50012;SDS011;35901;48.694;9.476;2023-04-03T08:41:37;2.87;;;2.40;;
50012;SDS011;35901;48.694;9.476;2023-04-03T08:49:47;3.10;;;2.53;;
50012;SDS011;35901;48.694;9.476;2023-04-03T08:52:59;1.90;;;1.80;;
50012;SDS011;35901;48.694;9.476;2023-04-03T08:55:27;2.13;;;1.93;;
50012;SDS011;35901;48.694;9.476;2023-04-03T08:58:03;3.00;;;2.70;;
50012;SDS011;35901;48.694;9.476;2023-04-03T09:03:28;4.53;;;2.80;;
50012;SDS011;35901;48.694;9.476;2023-04-03T09:08:26;3.67;;;2.63;;
50012;SDS011;35901;48.694;9.476;2023-04-03T09:11:18;3.37;;;2.37;;
50012;SDS011;35901;48.694;9.476;2023-04-03T09:20:02;3.53;;;2.47;;
50012;SDS011;35901;48.694;9.476;2023-04-03T09:22:43;2.30;;;1.70;;
50012;SDS011;35901;48.694;9.476;2023-04-03T09:27:43;4.07;;;2.50;;
50012;SDS011;35901;48.694;9.476;2023-04-03T09:30:16;2.63;;;2.43;;
50012;SDS011;35901;48.694;9.476;2023-04-03T09:32:51;2.20;;;1.70;;
50012;SDS011;35901;48.694;9.476;2023-04-03T09:35:31;2.13;;;1.87;;
50012;SDS011;35901;48.694;9.476;2023-04-03T09:38:01;1.97;;;1.87;;
50012;SDS011;35901;48.694;9.476;2023-04-03T09:40:43;3.13;;;2.20;;
50012;SDS011;35901;48.694;9.476;2023-04-03T09:43:25;2.40;;;2.03;;
50012;SDS011;35901;48.694;9.476;2023-04-03T09:48:57;2.40;;;1.93;;
50012;SDS011;35901;48.694;9.476;2023-04-03T09:51:27;1.87;;;1.63;;
50012;SDS011;35901;48.694;9.476;2023-04-03T09:53:57;1.43;;;1.33;;
50012;SDS011;35901;48.694;9.476;2023-04-03T09:56:25;2.30;;;2.10;;
50012;SDS011;35901;48.694;9.476;2023-04-03T10:01:31;2.17;;;2.03;;
50012;SDS011;35901;48.694;9.476;2023-04-03T10:04:14;2.13;;;1.93;;
50012;SDS011;35901;48.694;9.476;2023-04-03T10:06:46;2.30;;;2.10;;
50012;SDS011;35901;48.694;9.476;2023-04-03T10:09:17;3.53;;;1.87;;
50012;SDS011;35901;48.694;9.476;2023-04-03T10:12:09;2.30;;;1.80;;
50012;SDS011;35901;48.694;9.476;2023-04-03T10:14:38;2.23;;;1.83;;
50012;SDS011;35901;48.694;9.476;2023-04-03T10:20:33;2.17;;;1.97;;
50012;SDS011;35901;48.694;9.476;2023-04-03T10:23:24;3.40;;;2.23;;
50012;SDS011;35901;48.694;9.476;2023-04-03T10:28:36;2.33;;;2.00;;
50012;SDS011;35901;48.694;9.476;2023-04-03T10:31:13;1.93;;;1.83;;
50012;SDS011;35901;48.694;9.476;2023-04-03T10:34:06;2.00;;;1.77;;
50012;SDS011;35901;48.694;9.476;2023-04-03T10:48:08;1.87;;;1.63;;
50012;SDS011;35901;48.694;9.476;2023-04-03T10:58:45;2.20;;;2.00;;
50012;SDS011;35901;48.694;9.476;2023-04-03T11:01:27;2.17;;;2.07;;
50012;SDS011;35901;48.694;9.476;2023-04-03T11:04:00;2.17;;;1.90;;
50012;SDS011;35901;48.694;9.476;2023-04-03T11:06:37;1.27;;;1.23;;
50012;SDS011;35901;48.694;9.476;2023-04-03T11:09:27;3.00;;;1.73;;
50012;SDS011;35901;48.694;9.476;2023-04-03T11:14:58;2.23;;;1.60;;
50012;SDS011;35901;48.694;9.476;2023-04-03T11:25:50;2.37;;;1.80;;
50012;SDS011;35901;48.694;9.476;2023-04-03T11:28:19;2.30;;;1.87;;
50012;SDS011;35901;48.694;9.476;2023-04-03T11:38:43;2.57;;;1.60;;
50012;SDS011;35901;48.694;9.476;2023-04-03T11:41:11;1.67;;;1.30;;
50012;SDS011;35901;48.694;9.476;2023-04-03T11:47:01;1.97;;;1.70;;
50012;SDS011;35901;48.694;9.476;2023-04-03T12:05:54;2.13;;;1.73;;
50012;SDS011;35901;48.694;9.476;2023-04-03T12:08:29;1.90;;;1.77;;
50012;SDS011;35901;48.694;9.476;2023-04-03T12:16:23;2.27;;;1.67;;
50012;SDS011;35901;48.694;9.476;2023-04-03T12:24:31;1.87;;;1.17;;
50012;SDS011;35901;48.694;9.476;2023-04-03T12:30:16;1.67;;;1.57;;
50012;SDS011;35901;48.694;9.476;2023-04-03T12:38:22;2.00;;;1.80;;
50012;SDS011;35901;48.694;9.476;2023-04-03T12:41:27;2.70;;;1.60;;
50012;SDS011;35901;48.694;9.476;2023-04-03T12:44:30;1.80;;;1.70;;
50012;SDS011;35901;48.694;9.476;2023-04-03T12:47:19;2.13;;;1.93;;
50012;SDS011;35901;48.694;9.476;2023-04-03T12:49:58;2.17;;;1.90;;
50012;SDS011;35901;48.694;9.476;2023-04-03T12:55:14;2.53;;;1.83;;
50012;SDS011;35901;48.694;9.476;2023-04-03T12:57:45;2.20;;;1.73;;
50012;SDS011;35901;48.694;9.476;2023-04-03T13:00:21;1.87;;;1.73;;
50012;SDS011;35901;48.694;9.476;2023-04-03T13:02:51;4.13;;;1.77;;
50012;SDS011;35901;48.694;9.476;2023-04-03T13:05:18;1.73;;;1.40;;
50012;SDS011;35901;48.694;9.476;2023-04-03T13:07:53;1.83;;;1.50;;
50012;SDS011;35901;48.694;9.476;2023-04-03T13:10:24;2.63;;;1.90;;
50012;SDS011;35901;48.694;9.476;2023-04-03T13:12:54;1.90;;;1.67;;
50012;SDS011;35901;48.694;9.476;2023-04-03T13:15:42;2.07;;;1.80;;
50012;SDS011;35901;48.694;9.476;2023-04-03T13:20:58;1.90;;;1.80;;
50012;SDS011;35901;48.694;9.476;2023-04-03T13:23:28;2.23;;;2.03;;
50012;SDS011;35901;48.694;9.476;2023-04-03T13:25:56;2.20;;;1.90;;
50012;SDS011;35901;48.694;9.476;2023-04-03T13:28:26;2.00;;;1.90;;
50012;SDS011;35901;48.694;9.476;2023-04-03T13:31:26;3.13;;;1.93;;
50012;SDS011;35901;48.694;9.476;2023-04-03T13:36:32;2.70;;;1.80;;
50012;SDS011;35901;48.694;9.476;2023-04-03T13:39:20;3.03;;;2.00;;
50012;SDS011;35901;48.694;9.476;2023-04-03T13:41:50;2.87;;;2.10;;
50012;SDS011;35901;48.694;9.476;2023-04-03T13:46:55;2.00;;;1.80;;
50012;SDS011;35901;48.694;9.476;2023-04-03T13:52:00;2.00;;;1.50;;
50012;SDS011;35901;48.694;9.476;2023-04-03T13:54:32;1.87;;;1.70;;
50012;SDS011;35901;48.694;9.476;2023-04-03T13:57:03;1.87;;;1.40;;
50012;SDS011;35901;48.694;9.476;2023-04-03T13:59:38;2.23;;;1.90;;
50012;SDS011;35901;48.694;9.476;2023-04-03T14:07:02;2.87;;;1.80;;
50012;SDS011;35901;48.694;9.476;2023-04-03T14:09:28;2.27;;;2.10;;
50012;SDS011;35901;48.694;9.476;2023-04-03T14:11:56;1.97;;;1.77;;
50012;SDS011;35901;48.694;9.476;2023-04-03T14:14:30;2.10;;;1.90;;
50012;SDS011;35901;48.694;9.476;2023-04-03T14:17:01;2.33;;;1.73;;
50012;SDS011;35901;48.694;9.476;2023-04-03T14:19:37;2.30;;;1.97;;
50012;SDS011;35901;48.694;9.476;2023-04-03T14:22:25;2.27;;;1.83;;
50012;SDS011;35901;48.694;9.476;2023-04-03T14:24:49;2.13;;;1.93;;
50012;SDS011;35901;48.694;9.476;2023-04-03T14:29:41;1.90;;;1.70;;
50012;SDS011;35901;48.694;9.476;2023-04-03T14:32:07;3.47;;;2.27;;
50012;SDS011;35901;48.694;9.476;2023-04-03T14:34:35;2.10;;;2.00;;
50012;SDS011;35901;48.694;9.476;2023-04-03T14:37:01;2.10;;;1.90;;
50012;SDS011;35901;48.694;9.476;2023-04-03T14:39:30;2.10;;;2.00;;
50012;SDS011;35901;48.694;9.476;2023-04-03T14:41:56;3.97;;;2.17;;
50012;SDS011;35901;48.694;9.476;2023-04-03T14:44:22;2.10;;;1.93;;
50012;SDS011;35901;48.694;9.476;2023-04-03T14:46:48;2.27;;;2.07;;
50012;SDS011;35901;48.694;9.476;2023-04-03T14:49:35;1.83;;;1.73;;
50012;SDS011;35901;48.694;9.476;2023-04-03T14:52:00;2.13;;;1.93;;
50012;SDS011;35901;48.694;9.476;2023-04-03T14:54:26;1.77;;;1.67;;
50012;SDS011;35901;48.694;9.476;2023-04-03T14:56:53;2.20;;;2.00;;
50012;SDS011;35901;48.694;9.476;2023-04-03T14:59:20;2.27;;;2.00;;
50012;SDS011;35901;48.694;9.476;2023-04-03T15:01:47;2.80;;;1.80;;
50012;SDS011;35901;48.694;9.476;2023-04-03T15:04:17;1.97;;;1.60;;
50012;SDS011;35901;48.694;9.476;2023-04-03T15:06:44;2.07;;;1.80;;
50012;SDS011;35901;48.694;9.476;2023-04-03T15:09:22;2.37;;;2.00;;
50012;SDS011;35901;48.694;9.476;2023-04-03T15:11:51;2.20;;;1.60;;
50012;SDS011;35901;48.694;9.476;2023-04-03T15:14:18;2.27;;;2.00;;
50012;SDS011;35901;48.694;9.476;2023-04-03T15:16:44;2.73;;;2.00;;
50012;SDS011;35901;48.694;9.476;2023-04-03T15:19:10;1.90;;;1.70;;
50012;SDS011;35901;48.694;9.476;2023-04-03T15:21:37;2.77;;;1.67;;
50012;SDS011;35901;48.694;9.476;2023-04-03T15:24:03;2.80;;;1.40;;
50012;SDS011;35901;48.694;9.476;2023-04-03T15:26:29;2.17;;;1.57;;
50012;SDS011;35901;48.694;9.476;2023-04-03T15:28:55;2.20;;;2.00;;
50012;SDS011;35901;48.694;9.476;2023-04-03T15:31:21;1.73;;;1.63;;
50012;SDS011;35901;48.694;9.476;2023-04-03T15:33:47;2.90;;;2.27;;
50012;SDS011;35901;48.694;9.476;2023-04-03T15:36:12;1.70;;;1.60;;
50012;SDS011;35901;48.694;9.476;2023-04-03T15:38:38;1.93;;;1.73;;
50012;SDS011;35901;48.694;9.476;2023-04-03T15:41:04;2.27;;;2.00;;
50012;SDS011;35901;48.694;9.476;2023-04-03T15:43:30;2.33;;;1.60;;
50012;SDS011;35901;48.694;9.476;2023-04-03T15:45:56;2.03;;;1.83;;
50012;SDS011;35901;48.694;9.476;2023-04-03T15:48:22;2.77;;;1.90;;
50012;SDS011;35901;48.694;9.476;2023-04-03T15:50:48;2.77;;;2.17;;
50012;SDS011;35901;48.694;9.476;2023-04-03T15:53:14;2.17;;;1.60;;
50012;SDS011;35901;48.694;9.476;2023-04-03T15:55:39;1.87;;;1.70;;
50012;SDS011;35901;48.694;9.476;2023-04-03T15:58:06;1.83;;;1.73;;
50012;SDS011;35901;48.694;9.476;2023-04-03T16:00:32;3.63;;;2.07;;
50012;SDS011;35901;48.694;9.476;2023-04-03T16:02:59;2.80;;;1.70;;
50012;SDS011;35901;48.694;9.476;2023-04-03T16:05:29;2.00;;;1.80;;
50012;SDS011;35901;48.694;9.476;2023-04-03T16:07:55;2.00;;;1.87;;
50012;SDS011;35901;48.694;9.476;2023-04-03T16:10:23;5.23;;;2.17;;
50012;SDS011;35901;48.694;9.476;2023-04-03T16:12:48;2.90;;;1.90;;
50012;SDS011;35901;48.694;9.476;2023-04-03T16:15:14;2.07;;;1.90;;
50012;SDS011;35901;48.694;9.476;2023-04-03T16:17:40;2.87;;;1.93;;
50012;SDS011;35901;48.694;9.476;2023-04-03T16:20:06;2.37;;;1.90;;
50012;SDS011;35901;48.694;9.476;2023-04-03T16:22:35;2.37;;;1.93;;
50012;SDS011;35901;48.694;9.476;2023-04-03T16:25:01;3.23;;;1.83;;
50012;SDS011;35901;48.694;9.476;2023-04-03T16:27:27;3.17;;;2.23;;
50012;SDS011;35901;48.694;9.476;2023-04-03T16:29:55;3.20;;;1.93;;
50012;SDS011;35901;48.694;9.476;2023-04-03T16:32:21;2.00;;;1.90;;
50012;SDS011;35901;48.694;9.476;2023-04-03T16:34:47;4.27;;;2.27;;
50012;SDS011;35901;48.694;9.476;2023-04-03T16:37:13;3.33;;;1.80;;
50012;SDS011;35901;48.694;9.476;2023-04-03T16:39:39;2.00;;;1.90;;
50012;SDS011;35901;48.694;9.476;2023-04-03T16:42:05;3.43;;;2.10;;
50012;SDS011;35901;48.694;9.476;2023-04-03T16:44:31;3.33;;;1.90;;
50012;SDS011;35901;48.694;9.476;2023-04-03T16:46:57;2.43;;;1.83;;
50012;SDS011;35901;48.694;9.476;2023-04-03T16:49:24;2.00;;;1.80;;
50012;SDS011;35901;48.694;9.476;2023-04-03T16:51:50;1.63;;;1.53;;
50012;SDS011;35901;48.694;9.476;2023-04-03T16:54:15;1.87;;;1.73;;
50012;SDS011;35901;48.694;9.476;2023-04-03T16:56:41;2.53;;;1.73;;
50012;SDS011;35901;48.694;9.476;2023-04-03T16:59:07;3.07;;;1.97;;
50012;SDS011;35901;48.694;9.476;2023-04-03T17:01:32;2.33;;;1.77;;
50012;SDS011;35901;48.694;9.476;2023-04-03T17:03:58;2.13;;;1.93;;
50012;SDS011;35901;48.694;9.476;2023-04-03T17:06:24;2.40;;;1.77;;
50012;SDS011;35901;48.694;9.476;2023-04-03T17:08:50;3.10;;;1.70;;
50012;SDS011;35901;48.694;9.476;2023-04-03T17:11:29;2.43;;;1.70;;
50012;SDS011;35901;48.694;9.476;2023-04-03T17:13:55;2.47;;;1.80;;
50012;SDS011;35901;48.694;9.476;2023-04-03T17:16:21;1.70;;;1.60;;
50012;SDS011;35901;48.694;9.476;2023-04-03T17:18:48;2.10;;;1.87;;
50012;SDS011;35901;48.694;9.476;2023-04-03T17:21:14;1.83;;;1.70;;